createdAt,value
2018-12-17T00:02:09.955Z,10.90
2018-12-17T00:04:38.393Z,9.83
2018-12-17T00:07:06.589Z,8.73
2018-12-17T00:09:34.812Z,3.50
2018-12-17T00:12:03.204Z,8.77
2018-12-17T00:14:31.917Z,7.57
2018-12-17T00:17:00.108Z,5.50
2018-12-17T00:19:28.658Z,7.23
2018-12-17T00:21:56.846Z,5.77
2018-12-17T00:24:25.040Z,9.93
2018-12-17T00:26:53.272Z,7.03
2018-12-17T00:29:21.465Z,16.10
2018-12-17T00:31:49.868Z,9.77
2018-12-17T00:34:18.081Z,31.27
2018-12-17T00:36:46.327Z,17.17
2018-12-17T00:39:14.593Z,9.90
2018-12-17T00:41:42.848Z,9.17
2018-12-17T00:44:11.144Z,6.87
2018-12-17T00:46:39.631Z,4.77
2018-12-17T00:49:07.815Z,7.40
2018-12-17T00:51:36.012Z,6.83
2018-12-17T00:54:04.213Z,6.50
2018-12-17T00:56:32.543Z,11.33
2018-12-17T00:59:00.780Z,5.57
2018-12-17T01:01:28.998Z,4.20
2018-12-17T01:03:57.288Z,13.73
2018-12-17T01:06:25.503Z,13.97
2018-12-17T01:08:53.776Z,10.13
2018-12-17T01:11:22.093Z,10.70
2018-12-17T01:13:53.266Z,10.30
2018-12-17T01:16:21.755Z,6.50
2018-12-17T01:18:50.086Z,7.93
2018-12-17T01:21:18.996Z,4.50
2018-12-17T01:23:47.560Z,4.47
2018-12-17T01:26:16.152Z,3.67
2018-12-17T01:28:44.631Z,4.80
2018-12-17T01:31:12.836Z,7.83
2018-12-17T01:33:41.049Z,5.07
2018-12-17T01:36:09.456Z,5.00
2018-12-17T01:38:37.677Z,4.30
2018-12-17T01:41:06.390Z,5.30
2018-12-17T01:43:34.676Z,4.07
2018-12-17T01:46:02.964Z,20.50
2018-12-17T01:48:31.208Z,11.30
2018-12-17T01:50:59.404Z,10.40
2018-12-17T01:53:27.623Z,6.30
2018-12-17T01:55:56.028Z,12.80
2018-12-17T01:58:29.155Z,5.20
2018-12-17T02:00:54.424Z,6.73
2018-12-17T02:03:22.660Z,3.97
2018-12-17T02:05:50.852Z,4.20
2018-12-17T02:08:19.047Z,7.23
2018-12-17T02:10:47.360Z,5.00
2018-12-17T02:13:15.601Z,5.20
2018-12-17T02:15:43.787Z,3.63
2018-12-17T02:18:12.016Z,8.20
2018-12-17T02:20:40.220Z,4.93
2018-12-17T02:23:08.415Z,6.93
2018-12-17T02:25:36.728Z,3.50
2018-12-17T02:28:05.093Z,2.30
2018-12-17T02:30:33.290Z,6.57
2018-12-17T02:33:01.595Z,6.10
2018-12-17T02:35:29.872Z,5.50
2018-12-17T02:37:58.158Z,8.00
2018-12-17T02:40:26.525Z,4.17
2018-12-17T02:42:54.720Z,3.97
2018-12-17T02:45:22.928Z,3.40
2018-12-17T02:47:51.240Z,3.83
2018-12-17T02:50:19.446Z,4.13
2018-12-17T02:52:47.732Z,7.10
2018-12-17T02:55:15.944Z,5.50
2018-12-17T02:57:44.206Z,4.47
2018-12-17T03:00:12.682Z,4.93
2018-12-17T03:02:41.051Z,7.20
2018-12-17T03:05:09.440Z,5.83
2018-12-17T03:07:37.747Z,3.43
2018-12-17T03:10:06.493Z,4.37
2018-12-17T03:12:34.768Z,3.60
2018-12-17T03:15:02.965Z,3.33
2018-12-17T03:17:31.173Z,3.70
2018-12-17T03:19:59.375Z,5.20
2018-12-17T03:22:27.573Z,4.33
2018-12-17T03:24:56.117Z,6.43
2018-12-17T03:27:24.317Z,4.17
2018-12-17T03:29:52.521Z,3.40
2018-12-17T03:32:20.726Z,3.60
2018-12-17T03:34:48.994Z,3.40
2018-12-17T03:37:17.186Z,6.27
2018-12-17T03:39:45.492Z,7.83
2018-12-17T03:42:13.711Z,8.53
2018-12-17T03:44:42.394Z,8.13
2018-12-17T03:47:10.711Z,7.20
2018-12-17T03:49:39.017Z,4.13
2018-12-17T03:52:07.311Z,6.50
2018-12-17T03:54:35.596Z,3.27
2018-12-17T03:57:03.780Z,3.13
2018-12-17T03:59:31.981Z,3.43
2018-12-17T04:02:00.207Z,4.40
2018-12-17T04:04:28.468Z,2.50
2018-12-17T04:06:56.688Z,6.83
2018-12-17T04:09:24.903Z,2.43
2018-12-17T04:11:53.186Z,5.90
2018-12-17T04:14:21.477Z,12.47
2018-12-17T04:16:49.772Z,7.57
2018-12-17T04:19:17.979Z,5.37
2018-12-17T04:21:46.271Z,5.17
2018-12-17T04:24:14.831Z,2.63
2018-12-17T04:26:43.041Z,14.50
2018-12-17T04:29:11.314Z,9.20
2018-12-17T04:31:40.002Z,14.93
2018-12-17T04:34:08.273Z,8.60
2018-12-17T04:36:36.549Z,8.67
2018-12-17T04:39:06.496Z,5.97
2018-12-17T04:41:34.762Z,13.93
2018-12-17T04:44:03.052Z,10.63
2018-12-17T04:46:31.266Z,7.07
2018-12-17T04:48:59.577Z,5.67
2018-12-17T04:51:28.035Z,6.17
2018-12-17T04:53:56.248Z,6.93
2018-12-17T04:56:24.539Z,7.17
2018-12-17T04:58:52.741Z,4.10
2018-12-17T05:01:21.041Z,7.57
2018-12-17T05:03:56.004Z,6.20
2018-12-17T05:06:24.220Z,10.50
2018-12-17T05:08:52.416Z,6.73
2018-12-17T05:11:20.620Z,3.50
2018-12-17T05:13:48.993Z,11.73
2018-12-17T05:16:17.197Z,11.80
2018-12-17T05:18:45.481Z,4.90
2018-12-17T05:21:13.722Z,9.63
2018-12-17T05:23:41.912Z,5.20
2018-12-17T05:26:10.113Z,7.20
2018-12-17T05:28:38.329Z,16.50
2018-12-17T05:31:06.606Z,11.97
2018-12-17T05:33:34.882Z,9.43
2018-12-17T05:36:03.492Z,27.40
2018-12-17T05:38:31.694Z,15.97
2018-12-17T05:40:59.884Z,7.60
2018-12-17T05:43:28.097Z,6.00
2018-12-17T05:45:56.398Z,5.30
2018-12-17T05:48:24.615Z,6.33
2018-12-17T05:50:52.945Z,6.00
2018-12-17T05:53:21.148Z,7.43
2018-12-17T05:55:49.374Z,14.57
2018-12-17T05:58:17.703Z,13.77
2018-12-17T06:00:46.027Z,7.40
2018-12-17T06:03:14.252Z,10.40
2018-12-17T06:05:42.580Z,6.27
2018-12-17T06:08:12.877Z,5.63
2018-12-17T06:10:41.116Z,5.77
2018-12-17T06:13:09.349Z,17.87
2018-12-17T06:15:37.576Z,12.97
2018-12-17T06:18:05.789Z,7.37
2018-12-17T06:20:34.205Z,7.10
2018-12-17T06:23:02.450Z,7.60
2018-12-17T06:25:30.651Z,8.83
2018-12-17T06:27:58.967Z,4.00
2018-12-17T06:30:27.172Z,7.03
2018-12-17T06:32:55.365Z,5.37
2018-12-17T06:35:23.602Z,9.53
2018-12-17T06:37:52.055Z,6.03
2018-12-17T06:40:20.284Z,4.20
2018-12-17T06:42:48.535Z,3.30
2018-12-17T06:45:16.735Z,7.30
2018-12-17T06:47:44.960Z,6.57
2018-12-17T06:50:13.304Z,4.07
2018-12-17T06:52:41.533Z,3.27
2018-12-17T06:55:09.845Z,5.40
2018-12-17T06:57:38.164Z,10.20
2018-12-17T07:00:06.671Z,51.60
2018-12-17T07:02:34.884Z,17.87
2018-12-17T07:05:03.535Z,8.73
2018-12-17T07:07:31.828Z,4.93
2018-12-17T07:10:00.096Z,4.87
2018-12-17T07:12:28.336Z,6.30
2018-12-17T07:14:56.547Z,6.77
2018-12-17T07:17:24.759Z,5.20
2018-12-17T07:19:54.187Z,7.73
2018-12-17T07:22:22.593Z,5.17
2018-12-17T07:24:50.811Z,5.10
2018-12-17T07:27:19.185Z,7.03
2018-12-17T07:29:49.873Z,5.93
2018-12-17T07:32:18.657Z,8.13
2018-12-17T07:34:47.230Z,3.60
2018-12-17T07:37:15.461Z,6.07
2018-12-17T07:39:44.016Z,3.33
2018-12-17T07:42:12.662Z,10.50
2018-12-17T07:44:40.864Z,5.77
2018-12-17T07:47:09.077Z,5.50
2018-12-17T07:49:37.333Z,8.80
2018-12-17T07:52:05.628Z,6.67
2018-12-17T07:54:33.837Z,6.37
2018-12-17T07:57:02.125Z,5.80
2018-12-17T07:59:30.353Z,12.40
2018-12-17T08:01:59.185Z,13.73
2018-12-17T08:04:27.456Z,9.47
2018-12-17T08:06:55.694Z,15.60
2018-12-17T08:09:24.084Z,10.70
2018-12-17T08:11:52.548Z,6.40
2018-12-17T08:14:20.763Z,4.53
2018-12-17T08:16:49.055Z,6.80
2018-12-17T08:19:17.297Z,5.37
2018-12-17T08:21:45.604Z,6.23
2018-12-17T08:24:13.827Z,7.63
2018-12-17T08:26:42.462Z,10.13
2018-12-17T08:29:10.857Z,9.20
2018-12-17T08:31:39.082Z,15.90
2018-12-17T08:34:07.390Z,10.70
2018-12-17T08:36:35.629Z,11.77
2018-12-17T08:39:06.599Z,15.20
2018-12-17T08:41:34.843Z,12.60
2018-12-17T08:44:03.069Z,17.93
2018-12-17T08:46:31.285Z,15.23
2018-12-17T08:48:59.531Z,23.23
2018-12-17T08:51:27.946Z,19.00
2018-12-17T08:53:56.200Z,15.13
2018-12-17T08:56:24.552Z,16.47
2018-12-17T08:58:52.768Z,21.30
2018-12-17T09:01:20.982Z,17.47
2018-12-17T09:03:49.241Z,21.63
2018-12-17T09:06:17.872Z,19.43
2018-12-17T09:08:46.171Z,16.97
2018-12-17T09:11:14.665Z,20.27
2018-12-17T09:13:42.863Z,15.83
2018-12-17T09:16:11.086Z,15.70
2018-12-17T09:18:39.341Z,16.30
2018-12-17T09:21:07.572Z,13.57
2018-12-17T09:23:35.782Z,13.60
2018-12-17T09:26:04.311Z,17.97
2018-12-17T09:28:32.522Z,14.97
2018-12-17T09:31:00.822Z,14.10
2018-12-17T09:33:29.212Z,12.60
2018-12-17T09:35:57.538Z,15.40
2018-12-17T09:38:25.839Z,15.60
2018-12-17T09:40:54.077Z,18.30
2018-12-17T09:43:22.304Z,16.27
2018-12-17T09:45:50.512Z,14.97
2018-12-17T09:48:18.845Z,14.07
2018-12-17T09:50:47.060Z,11.50
2018-12-17T09:53:15.292Z,15.50
2018-12-17T09:55:43.509Z,15.27
2018-12-17T09:58:11.734Z,10.87
2018-12-17T10:00:39.950Z,14.90
2018-12-17T10:03:08.273Z,14.47
2018-12-17T10:05:36.537Z,13.50
2018-12-17T10:08:04.866Z,11.00
2018-12-17T10:10:33.097Z,12.97
2018-12-17T10:13:01.313Z,13.07
2018-12-17T10:15:29.549Z,20.27
2018-12-17T10:17:57.829Z,27.87
2018-12-17T10:20:26.054Z,21.67
2018-12-17T10:22:54.272Z,37.20
2018-12-17T10:25:22.533Z,38.13
2018-12-17T10:27:50.868Z,26.50
2018-12-17T10:30:19.182Z,20.00
2018-12-17T10:32:47.432Z,25.97
2018-12-17T10:35:15.801Z,20.77
2018-12-17T10:37:44.057Z,13.30
2018-12-17T10:40:12.598Z,17.10
2018-12-17T10:42:40.821Z,16.90
2018-12-17T10:45:09.240Z,16.47
2018-12-17T10:47:37.506Z,10.90
2018-12-17T10:50:06.525Z,14.97
2018-12-17T10:52:34.760Z,15.63
2018-12-17T10:55:03.737Z,15.90
2018-12-17T10:57:31.965Z,19.10
2018-12-17T11:00:00.176Z,21.13
2018-12-17T11:02:33.961Z,21.73
2018-12-17T11:05:21.423Z,24.20
2018-12-17T11:07:49.769Z,24.87
2018-12-17T11:10:18.041Z,135.23
2018-12-17T11:12:46.477Z,34.23
2018-12-17T11:15:14.814Z,25.10
2018-12-17T11:17:44.686Z,20.63
2018-12-17T11:20:13.145Z,21.93
2018-12-17T11:22:41.401Z,21.30
2018-12-17T11:25:09.652Z,20.97
2018-12-17T11:27:37.916Z,25.47
2018-12-17T11:30:08.999Z,25.03
2018-12-17T11:32:39.303Z,21.10
2018-12-17T11:35:07.639Z,28.80
2018-12-17T11:37:35.953Z,32.63
2018-12-17T11:40:04.924Z,27.20
2018-12-17T11:42:33.151Z,26.27
2018-12-17T11:45:01.471Z,33.63
2018-12-17T11:47:29.680Z,36.90
2018-12-17T11:49:57.891Z,62.93
2018-12-17T11:52:26.200Z,69.87
2018-12-17T11:54:54.399Z,58.53
2018-12-17T11:58:25.660Z,61.97
2018-12-17T12:00:59.328Z,64.33
2018-12-17T12:03:27.663Z,56.47
2018-12-17T12:05:55.876Z,18.70
2018-12-17T12:08:24.090Z,21.60
2018-12-17T12:10:52.500Z,23.37
2018-12-17T12:13:20.705Z,23.87
2018-12-17T12:15:49.001Z,27.73
2018-12-17T12:18:17.230Z,40.00
2018-12-17T12:20:45.439Z,34.20
2018-12-17T12:23:13.651Z,36.20
2018-12-17T12:25:41.961Z,37.70
2018-12-17T12:28:10.204Z,18.87
2018-12-17T12:30:38.428Z,43.23
2018-12-17T12:33:06.649Z,44.23
2018-12-17T12:35:35.039Z,122.43
2018-12-17T12:38:03.337Z,34.13
2018-12-17T12:40:33.172Z,17.60
2018-12-17T12:43:01.533Z,25.57
2018-12-17T12:45:29.750Z,60.17
2018-12-17T12:47:57.984Z,39.20
2018-12-17T12:50:26.292Z,50.57
2018-12-17T12:52:54.520Z,35.20
2018-12-17T12:55:22.772Z,30.23
2018-12-17T12:57:50.997Z,24.37
2018-12-17T13:00:19.345Z,40.60
2018-12-17T13:02:47.580Z,27.50
2018-12-17T13:05:15.801Z,64.03
2018-12-17T13:07:44.013Z,42.20
2018-12-17T13:10:13.305Z,37.60
2018-12-17T13:12:41.681Z,41.73
2018-12-17T13:15:10.373Z,34.93
2018-12-17T13:17:39.017Z,15.47
2018-12-17T13:20:08.851Z,9.40
2018-12-17T13:22:37.177Z,8.10
2018-12-17T13:25:08.113Z,10.70
2018-12-17T13:27:36.313Z,10.00
2018-12-17T13:30:06.866Z,7.00
2018-12-17T13:32:35.440Z,7.23
2018-12-17T13:35:03.932Z,6.70
2018-12-17T13:37:32.213Z,6.90
2018-12-17T13:40:00.430Z,5.10
2018-12-17T13:42:28.637Z,6.33
2018-12-17T13:44:56.928Z,6.00
2018-12-17T13:47:25.268Z,6.93
2018-12-17T13:49:53.490Z,7.90
2018-12-17T13:52:26.982Z,7.43
2018-12-17T13:54:55.197Z,9.60
2018-12-17T13:57:23.388Z,7.40
2018-12-17T13:59:51.638Z,17.90
2018-12-17T14:02:19.841Z,8.23
2018-12-17T14:04:48.056Z,8.47
2018-12-17T14:07:16.301Z,10.37
2018-12-17T14:09:49.960Z,11.87
2018-12-17T14:12:18.493Z,8.37
2018-12-17T14:14:46.712Z,6.33
2018-12-17T14:17:20.373Z,8.27
2018-12-17T14:19:54.065Z,8.73
2018-12-17T14:22:22.320Z,12.60
2018-12-17T14:24:50.558Z,11.37
2018-12-17T14:27:18.773Z,6.57
2018-12-17T14:29:47.101Z,9.90
2018-12-17T14:32:15.308Z,9.10
2018-12-17T14:34:43.517Z,6.10
2018-12-17T14:37:11.736Z,6.40
2018-12-17T14:39:39.955Z,8.67
2018-12-17T14:42:08.187Z,8.73
2018-12-17T14:44:36.544Z,5.63
2018-12-17T14:47:04.965Z,10.67
2018-12-17T14:49:33.181Z,25.60
2018-12-17T14:52:01.612Z,22.77
2018-12-17T14:54:29.880Z,10.30
2018-12-17T14:56:58.095Z,9.03
2018-12-17T14:59:26.448Z,8.03
2018-12-17T15:01:54.769Z,11.73
2018-12-17T15:04:23.004Z,9.00
2018-12-17T15:06:51.233Z,5.10
2018-12-17T15:09:19.452Z,4.53
2018-12-17T15:11:47.776Z,8.60
2018-12-17T15:14:16.070Z,4.60
2018-12-17T15:16:44.281Z,10.87
2018-12-17T15:19:13.901Z,6.73
2018-12-17T15:21:42.517Z,6.30
2018-12-17T15:24:10.757Z,11.13
2018-12-17T15:26:39.051Z,9.80
2018-12-17T15:29:07.380Z,6.43
2018-12-17T15:31:42.833Z,11.50
2018-12-17T15:34:05.900Z,7.93
2018-12-17T15:36:34.173Z,6.93
2018-12-17T15:39:02.784Z,7.87
2018-12-17T15:41:31.045Z,6.10
2018-12-17T15:43:59.315Z,8.70
2018-12-17T15:46:27.607Z,14.93
2018-12-17T15:48:55.826Z,15.10
2018-12-17T15:51:24.062Z,18.53
2018-12-17T15:53:52.287Z,13.00
2018-12-17T15:56:20.496Z,18.60
2018-12-17T15:58:48.764Z,12.53
2018-12-17T16:01:17.054Z,11.17
2018-12-17T16:03:45.286Z,15.67
2018-12-17T16:06:13.532Z,13.93
2018-12-17T16:08:41.781Z,13.47
2018-12-17T16:11:10.060Z,40.87
2018-12-17T16:13:38.415Z,21.17
2018-12-17T16:16:06.646Z,14.40
2018-12-17T16:18:34.866Z,29.90
2018-12-17T16:21:03.096Z,11.10
2018-12-17T16:23:31.296Z,7.70
2018-12-17T16:25:59.525Z,16.77
2018-12-17T16:28:27.761Z,10.77
2018-12-17T16:30:56.019Z,17.70
2018-12-17T16:33:29.889Z,13.63
2018-12-17T16:35:54.596Z,26.20
2018-12-17T16:38:22.837Z,12.60
2018-12-17T16:40:51.057Z,7.00
2018-12-17T16:43:19.316Z,8.70
2018-12-17T16:45:47.531Z,6.80
2018-12-17T16:48:15.772Z,10.77
2018-12-17T16:50:44.008Z,10.30
2018-12-17T16:53:12.249Z,13.63
2018-12-17T16:55:40.473Z,32.03
2018-12-17T16:58:08.837Z,20.23
2018-12-17T17:00:37.242Z,54.10
2018-12-17T17:03:05.469Z,20.00
2018-12-17T17:05:33.692Z,12.40
2018-12-17T17:08:01.914Z,21.63
2018-12-17T17:10:30.121Z,12.93
2018-12-17T17:12:58.430Z,17.73
2018-12-17T17:15:26.739Z,30.63
2018-12-17T17:17:54.963Z,22.53
2018-12-17T17:20:23.290Z,52.83
2018-12-17T17:22:51.501Z,20.33
2018-12-17T17:25:19.735Z,22.73
2018-12-17T17:27:48.264Z,22.37
2018-12-17T17:30:16.822Z,25.13
2018-12-17T17:32:45.066Z,32.27
2018-12-17T17:35:13.297Z,16.87
2018-12-17T17:37:41.522Z,18.20
2018-12-17T17:40:09.832Z,7.90
2018-12-17T17:42:38.146Z,11.53
2018-12-17T17:45:06.815Z,6.63
2018-12-17T17:47:35.114Z,8.00
2018-12-17T17:50:03.726Z,14.13
2018-12-17T17:52:33.837Z,17.83
2018-12-17T17:55:02.061Z,7.90
2018-12-17T17:57:30.324Z,16.93
2018-12-17T17:59:58.551Z,14.07
2018-12-17T18:02:26.777Z,13.13
2018-12-17T18:04:55.052Z,6.43
2018-12-17T18:07:23.377Z,7.00
2018-12-17T18:09:51.719Z,11.20
2018-12-17T18:12:19.962Z,13.40
2018-12-17T18:14:48.173Z,6.30
2018-12-17T18:17:16.437Z,5.73
2018-12-17T18:19:44.778Z,7.80
2018-12-17T18:22:13.069Z,6.40
2018-12-17T18:24:41.377Z,7.40
2018-12-17T18:27:09.612Z,13.30
2018-12-17T18:29:38.016Z,9.93
2018-12-17T18:32:06.240Z,12.77
2018-12-17T18:34:34.552Z,11.23
2018-12-17T18:37:02.880Z,9.30
2018-12-17T18:39:31.113Z,8.43
2018-12-17T18:41:59.426Z,4.20
2018-12-17T18:44:27.779Z,3.40
2018-12-17T18:46:55.985Z,4.03
2018-12-17T18:49:24.306Z,6.53
2018-12-17T18:51:52.522Z,6.63
2018-12-17T18:54:20.860Z,10.20
2018-12-17T18:56:49.191Z,3.57
2018-12-17T18:59:17.434Z,7.53
2018-12-17T19:01:45.668Z,8.30
2018-12-17T19:04:14.085Z,6.80
2018-12-17T19:06:42.320Z,6.67
2018-12-17T19:09:10.902Z,6.03
2018-12-17T19:11:39.149Z,11.80
2018-12-17T19:14:07.389Z,10.80
2018-12-17T19:16:35.795Z,9.00
2018-12-17T19:19:04.199Z,10.80
2018-12-17T19:21:32.878Z,5.03
2018-12-17T19:24:01.085Z,5.00
2018-12-17T19:26:29.342Z,13.13
2018-12-17T19:28:57.563Z,8.13
2018-12-17T19:31:25.776Z,9.33
2018-12-17T19:33:54.088Z,8.10
2018-12-17T19:36:22.312Z,5.13
2018-12-17T19:38:50.625Z,4.80
2018-12-17T19:41:18.886Z,6.40
2018-12-17T19:43:47.642Z,8.40
2018-12-17T19:46:15.948Z,5.67
2018-12-17T19:48:44.210Z,6.77
2018-12-17T19:51:12.550Z,8.53
2018-12-17T19:53:40.804Z,5.03
2018-12-17T19:56:09.051Z,7.77
2018-12-17T19:58:37.368Z,7.80
2018-12-17T20:01:05.777Z,6.33
2018-12-17T20:03:34.328Z,6.60
2018-12-17T20:06:02.619Z,8.60
2018-12-17T20:08:30.863Z,7.43
2018-12-17T20:10:59.122Z,4.57
2018-12-17T20:13:27.366Z,5.90
2018-12-17T20:15:55.611Z,8.00
2018-12-17T20:18:23.853Z,6.07
2018-12-17T20:20:52.089Z,13.63
2018-12-17T20:23:20.387Z,23.47
2018-12-17T20:25:48.622Z,14.70
2018-12-17T20:28:16.916Z,5.20
2018-12-17T20:30:45.138Z,9.37
2018-12-17T20:33:13.364Z,3.80
2018-12-17T20:35:41.585Z,17.50
2018-12-17T20:38:09.822Z,13.77
2018-12-17T20:40:38.141Z,9.33
2018-12-17T20:43:06.354Z,5.97
2018-12-17T20:45:34.602Z,13.23
2018-12-17T20:48:02.824Z,5.60
2018-12-17T20:50:31.137Z,8.23
2018-12-17T20:52:59.365Z,16.60
2018-12-17T20:55:30.768Z,30.77
2018-12-17T20:57:58.917Z,16.23
2018-12-17T21:00:27.341Z,8.47
2018-12-17T21:03:00.302Z,13.43
2018-12-17T21:05:25.799Z,5.20
2018-12-17T21:07:54.024Z,15.80
2018-12-17T21:10:22.249Z,9.80
2018-12-17T21:12:50.465Z,8.73
2018-12-17T21:15:18.692Z,13.30
2018-12-17T21:17:46.916Z,13.30
2018-12-17T21:20:15.213Z,20.40
2018-12-17T21:22:43.482Z,17.93
2018-12-17T21:25:11.804Z,31.37
2018-12-17T21:27:40.196Z,15.40
2018-12-17T21:30:09.617Z,12.43
2018-12-17T21:32:37.942Z,13.43
2018-12-17T21:35:07.073Z,7.10
2018-12-17T21:37:35.390Z,14.60
2018-12-17T21:40:03.844Z,11.70
2018-12-17T21:42:32.105Z,16.30
2018-12-17T21:45:00.360Z,19.63
2018-12-17T21:47:28.665Z,15.43
2018-12-17T21:49:56.882Z,19.07
2018-12-17T21:52:25.581Z,9.83
2018-12-17T21:54:53.942Z,12.10
2018-12-17T21:57:22.177Z,9.43
2018-12-17T21:59:50.397Z,9.60
2018-12-17T22:02:18.727Z,16.77
2018-12-17T22:04:46.937Z,15.23
2018-12-17T22:07:15.329Z,17.30
2018-12-17T22:09:43.542Z,7.97
2018-12-17T22:12:11.877Z,16.27
2018-12-17T22:14:40.088Z,7.43
2018-12-17T22:17:08.393Z,7.30
2018-12-17T22:19:36.625Z,10.60
2018-12-17T22:22:04.943Z,6.50
2018-12-17T22:24:33.161Z,9.70
2018-12-17T22:27:01.474Z,8.00
2018-12-17T22:29:29.810Z,4.07
2018-12-17T22:31:58.099Z,7.70
2018-12-17T22:34:26.302Z,16.10
2018-12-17T22:36:54.624Z,30.43
2018-12-17T22:39:23.133Z,25.90
2018-12-17T22:41:51.352Z,17.87
2018-12-17T22:44:19.615Z,19.40
2018-12-17T22:46:47.921Z,16.90
2018-12-17T22:49:16.149Z,50.53
2018-12-17T22:51:44.372Z,28.00
2018-12-17T22:54:12.611Z,19.07
2018-12-17T22:56:40.837Z,12.40
2018-12-17T22:59:09.059Z,11.80
2018-12-17T23:01:37.381Z,19.27
2018-12-17T23:04:05.694Z,7.87
2018-12-17T23:06:33.989Z,3.90
2018-12-17T23:09:05.371Z,6.23
2018-12-17T23:11:50.610Z,12.70
2018-12-17T23:14:30.233Z,6.17
2018-12-17T23:17:09.580Z,6.70
2018-12-17T23:19:42.397Z,6.73
2018-12-17T23:22:11.189Z,7.60
2018-12-17T23:24:39.553Z,6.97
2018-12-17T23:27:07.993Z,9.30
2018-12-17T23:29:36.433Z,7.50
2018-12-17T23:32:04.844Z,9.03
2018-12-17T23:34:33.236Z,6.70
2018-12-17T23:37:01.507Z,5.53
2018-12-17T23:39:29.717Z,10.47
2018-12-17T23:41:57.966Z,6.10
2018-12-17T23:44:26.302Z,4.13
2018-12-17T23:46:54.501Z,5.73
2018-12-17T23:49:22.777Z,4.70
2018-12-17T23:51:51.055Z,17.43
2018-12-17T23:54:19.257Z,14.43
2018-12-17T23:56:47.449Z,8.33
2018-12-17T23:59:15.764Z,7.43
